Latest Weather Observations for Williamtown

IDN60801

Issued at 5:33 am EST Monday 27 September 2021 (issued every 10 minutes, with the page automatically refreshed every 10 minutes)

About weather observations | Map of weather stations | Latest weather observations for NSW | Other Formats
Station Details ID: 061078 Name: WILLIAMTOWN RAAF Lat: -32.79 Lon: 151.84 Height: 7.5 m
Data from the previous 72 hours. | See also: Recent months at Williamtown
Date/Time
EST
Temp
°C
App
Temp
°C
Dew
Point
°C
Rel
Hum
%
Delta-T
°C
Wind Press
QNH
hPa
Press
MSL
hPa
Rain since
9am
mm
Dir  Spd
km/h
Gust
km/h
Spd
kts
Gust
kts
27/05:30am 8.5 8.1 8.1 97 0.2 CALM 0 0 0 0 1025.3 1025.3 2.2
27/05:00am 8.5 7.9 7.4 93 0.5 CALM 0 0 0 0 1025.0 1025.0 2.2
27/04:30am 9.4 7.7 8.5 94 0.4 N 7 9 4 5 1024.7 1024.7 2.2
27/04:00am 9.1 7.0 8.2 94 0.4 N 9 9 5 5 1024.7 1024.7 2.2
27/03:30am 8.5 7.1 7.1 91 0.7 N 4 9 2 5 1024.7 1024.7 2.2
27/03:00am 9.9 9.3 7.2 83 1.3 CALM 0 6 0 3 1025.0 1025.0 2.2
27/02:30am 12.5 10.1 7.0 69 2.6 ENE 9 11 5 6 1025.0 1025.0 2.2
27/02:00am 12.3 10.7 8.6 78 1.8 NNE 7 9 4 5 1025.2 1025.2 2.2
27/01:30am 12.5 10.8 8.4 76 2.0 NE 7 9 4 5 1025.5 1025.5 2.2
27/01:00am 12.9 11.1 7.8 71 2.5 NNE 7 9 4 5 1025.7 1025.7 2.2
27/12:30am 13.1 11.3 7.8 70 2.6 NE 7 11 4 6 1026.0 1026.0 2.2
27/12:00am 13.2 11.0 7.9 70 2.6 NE 9 13 5 7 1026.3 1026.3 2.2
 
Date/Time
EST
Temp
°C
App
Temp
°C
Dew
Point
°C
Rel
Hum
%
Delta-T
°C
Wind Press
QNH
hPa
Press
MSL
hPa
Rain since
9am
mm
Dir  Spd
km/h
Gust
km/h
Spd
kts
Gust
kts
26/11:30pm 13.0 10.8 7.7 70 2.6 NE 9 13 5 7 1026.5 1026.5 2.2
26/11:00pm 12.0 10.5 8.3 78 1.8 NNE 6 7 3 4 1026.5 1026.5 2.2
26/10:30pm 12.4 10.5 6.9 69 2.6 ENE 6 7 3 4 1026.6 1026.6 2.2
26/10:00pm 13.8 11.2 5.9 59 3.7 E 9 13 5 7 1026.7 1026.7 2.2
26/09:30pm 14.5 11.1 6.1 57 4.0 E 13 20 7 11 1026.8 1026.8 2.2
26/09:00pm 14.7 10.6 6.0 56 4.1 ESE 17 26 9 14 1026.8 1026.8 2.2
26/08:30pm 14.7 11.1 6.8 59 3.8 ESE 15 20 8 11 1026.7 1026.7 2.2
26/08:00pm 14.6 11.1 7.2 61 3.6 ESE 15 22 8 12 1026.5 1026.5 2.2
26/07:30pm 14.7 10.9 7.7 63 3.5 ESE 17 24 9 13 1026.3 1026.3 2.2
26/07:00pm 14.4 10.9 7.2 62 3.5 ESE 15 20 8 11 1026.1 1026.1 2.2
26/06:30pm 14.2 10.8 7.7 65 3.2 ESE 15 19 8 10 1026.0 1026.0 2.2
26/06:00pm 13.4 11.9 9.1 75 2.2 ESE 7 9 4 5 1025.8 1025.8 2.2
26/05:30pm 13.8 10.2 8.4 70 2.7 ESE 17 26 9 14 1025.6 1025.6 2.2
26/05:00pm 13.4 9.3 10.0 80 1.7 SSE 22 32 12 17 1025.7 1025.7 2.2
26/04:40pm 14.0 8.7 10.0 77 2.1 SSE 28 39 15 21 1025.6 1025.6 2.2
26/04:30pm 14.9 11.3 9.9 72 2.6 SE 19 26 10 14 1025.4 1025.4 2.2
26/04:00pm 14.1 9.7 10.5 79 1.9 SSE 24 33 13 18 1025.2 1025.2 2.2
26/03:30pm 14.5 9.5 9.7 73 2.5 S 26 33 14 18 1025.1 1025.1 2.2
26/03:00pm 16.0 10.8 9.0 63 3.6 SE 26 33 14 18 1024.9 1024.9 2.2
26/02:30pm 16.0 10.1 7.7 58 4.2 SE 28 33 15 18 1024.9 1024.9 2.2
26/02:00pm 15.3 8.8 8.1 62 3.6 SE 32 44 17 24 1025.0 1025.0 2.2
26/01:30pm 16.3 10.9 7.8 57 4.3 SE 26 37 14 20 1025.0 1025.0 2.2
26/01:00pm 15.4 10.9 10.0 70 2.8 ESE 24 32 13 17 1025.2 1025.2 2.2
26/12:30pm 15.2 9.4 9.3 68 3.0 ESE 30 35 16 19 1025.3 1025.3 2.2
26/12:00pm 16.2 10.7 10.5 69 3.0 SE 30 41 16 22 1025.3 1025.3 2.2
26/11:30am 16.2 10.1 9.8 66 3.3 SSE 32 41 17 22 1025.4 1025.4 2.2
26/11:00am 14.9 10.2 12.0 83 1.6 SSE 28 33 15 18 1025.6 1025.6 2.2
26/10:39am 13.6 10.0 12.0 90 0.9 SSE 22 30 12 16 1025.7 1025.7 2.0
26/10:30am 13.2 10.2 12.1 93 0.6 ESE 19 28 10 15 1025.8 1025.8 1.6
26/10:20am 12.7 9.3 11.4 92 0.7 SE 20 30 11 16 1025.9 1025.9 1.2
26/10:00am 14.5 11.2 10.9 79 1.9 SE 19 24 10 13 1025.7 1025.7 0.0
26/09:30am 14.2 11.2 10.8 80 1.8 SE 17 22 9 12 1025.6 1025.6 0.0
26/09:00am 13.2 7.7 10.7 85 1.3 SSE 30 35 16 19 1025.4 1025.4 3.6
26/08:30am 14.4 9.8 9.6 73 2.5 SSE 24 35 13 19 1025.0 1025.0 3.6
26/08:00am 14.8 9.1 8.5 66 3.2 SSE 28 35 15 19 1024.7 1024.7 3.6
26/07:30am 14.2 7.9 9.0 71 2.6 SSE 32 43 17 23 1024.5 1024.5 3.6
26/07:00am 13.9 7.7 9.5 75 2.2 SSE 32 41 17 22 1024.0 1024.0 3.6
26/06:30am 13.4 9.5 9.3 76 2.1 SE 20 26 11 14 1023.7 1023.7 3.6
26/06:00am 13.2 8.6 9.8 80 1.7 SSE 24 32 13 17 1023.3 1023.3 3.6
26/05:30am 12.9 8.9 10.3 84 1.3 SSE 22 30 12 16 1023.0 1023.0 3.6
26/05:00am 12.9 9.8 10.4 85 1.3 SSE 17 22 9 12 1022.6 1022.6 3.6
26/04:30am 12.9 8.5 10.4 85 1.3 SSE 24 32 13 17 1022.4 1022.4 3.6
26/04:00am 12.9 9.5 11.1 89 0.9 SSE 20 32 11 17 1021.9 1021.9 3.6
26/03:30am 12.5 9.1 10.6 88 1.0 SE 19 24 10 13 1021.8 1021.8 3.6
26/03:00am 12.6 8.5 11.3 92 0.7 SE 24 32 13 17 1021.8 1021.8 3.6
26/02:30am 12.6 8.6 11.7 94 0.5 SSE 24 33 13 18 1021.8 1021.8 3.4
26/02:08am 12.5 9.4 11.7 95 0.4 SSE 19 26 10 14 1021.9 1021.9 3.4
26/02:00am 12.5 9.9 12.0 97 0.3 SSE 17 22 9 12 1021.9 1021.9 3.4
26/01:46am 12.9 9.4 12.1 95 0.4 SE 22 28 12 15 1022.1 1022.1 3.0
26/01:30am 13.1 8.6 11.5 90 0.8 SSE 26 32 14 17 1022.0 1022.0 3.0
26/01:00am 13.1 10.9 12.0 93 0.6 SE 15 20 8 11 1022.0 1022.0 3.0
26/12:44am 13.1 10.6 12.2 94 0.5 SSE 17 24 9 13 1022.0 1022.0 3.0
26/12:32am 13.1 9.9 12.0 93 0.6 SSE 20 28 11 15 1022.1 1022.1 3.0
26/12:30am 13.1 10.1 12.0 93 0.6 SSE 19 28 10 15 1022.1 1022.1 3.0
26/12:14am 13.4 12.4 12.3 93 0.6 SSW 9 17 5 9 1022.1 1022.1 2.2
26/12:00am 13.4 10.8 12.1 92 0.7 SSE 17 24 9 13 1022.0 1022.0 1.8
 
Date/Time
EST
Temp
°C
App
Temp
°C
Dew
Point
°C
Rel
Hum
%
Delta-T
°C
Wind Press
QNH
hPa
Press
MSL
hPa
Rain since
9am
mm
Dir  Spd
km/h
Gust
km/h
Spd
kts
Gust
kts
25/11:30pm 13.9 11.9 11.6 86 1.2 ESE 13 17 7 9 1021.5 1021.5 0.6
25/11:00pm 13.7 11.1 11.9 89 1.0 SSE 17 26 9 14 1021.5 1021.5 0.6
25/10:30pm 13.8 11.6 12.0 89 1.0 ESE 15 22 8 12 1021.4 1021.4 0.2
25/10:00pm 14.7 11.1 11.8 83 1.6 SE 22 32 12 17 1021.4 1021.4 0.0
25/09:30pm 14.8 12.4 11.4 80 1.8 ESE 15 20 8 11 1021.1 1021.1 0.0
25/09:00pm 14.2 11.1 12.1 87 1.1 SE 20 26 11 14 1020.9 1020.8 0.0
25/08:30pm 15.2 10.3 11.4 78 2.0 SSE 28 33 15 18 1020.9 1020.8 0.0
25/08:00pm 16.0 12.7 11.0 72 2.7 SE 19 26 10 14 1020.5 1020.4 0.0
25/07:30pm 16.3 11.7 11.0 71 2.8 SE 26 33 14 18 1020.0 1019.9 0.0
25/07:00pm 16.3 12.2 11.5 73 2.6 SE 24 30 13 16 1019.4 1019.3 0.0
25/06:30pm 16.4 11.6 11.8 74 2.5 SE 28 37 15 20 1019.0 1018.9 0.0
25/06:00pm 16.4 11.6 11.6 73 2.6 SE 28 35 15 19 1018.6 1018.5 0.0
25/05:30pm 16.8 11.7 11.9 73 2.7 SE 30 33 16 18 1018.0 1017.9 0.0
25/05:00pm 16.6 11.1 12.6 77 2.2 SSE 33 43 18 23 1017.4 1017.3 0.0
25/04:46pm 17.2 12.3 12.5 74 2.6 SE 30 48 16 26 1017.0 1016.9 0.0
25/04:30pm 17.7 12.5 11.7 68 3.3 SE 30 37 16 20 1016.7 1016.6 0.0
25/04:00pm 18.4 12.9 11.9 66 3.6 SE 32 41 17 22 1016.3 1016.2 0.0
25/03:30pm 18.6 13.1 11.9 65 3.7 SE 32 41 17 22 1015.9 1015.8 0.0
25/03:00pm 19.3 13.6 13.0 67 3.6 SE 35 44 19 24 1015.3 1015.2 0.0
25/02:30pm 19.5 13.6 12.5 64 3.9 SSE 35 48 19 26 1015.0 1014.9 0.0
25/02:00pm 20.9 15.1 13.8 64 4.1 SSE 37 48 20 26 1014.8 1014.7 0.0
25/01:30pm 19.9 14.1 12.7 63 4.1 SSE 35 46 19 25 1014.8 1014.7 0.0
25/01:00pm 21.6 16.5 13.0 58 4.9 S 32 50 17 27 1014.9 1014.8 0.0
25/12:54pm 20.3 14.6 11.2 56 5.0 S 32 50 17 27 1014.8 1014.7 0.0
25/12:30pm 20.9 14.7 9.2 47 6.2 S 32 41 17 22 1014.8 1014.7 0.0
25/12:00pm 21.3 14.6 7.5 41 7.1 SSE 32 37 17 20 1014.8 1014.7 0.0
25/11:30am 21.3 16.1 10.2 49 6.0 SSE 28 33 15 18 1014.8 1014.7 0.0
25/11:00am 22.1 17.9 9.6 45 6.7 SSE 22 28 12 15 1014.6 1014.5 0.0
25/10:30am 22.2 16.6 5.6 34 8.3 SSE 24 30 13 16 1014.4 1014.3 0.0
25/10:00am 23.8 20.0 5.7 31 9.2 W 15 26 8 14 1014.3 1014.2 0.0
25/09:30am 22.4 17.6 5.8 34 8.4 WNW 20 28 11 15 1014.2 1014.1 0.0
25/09:00am 21.6 16.7 7.1 39 7.4 WNW 22 28 12 15 1014.2 1014.1 0.0
25/08:30am 19.9 14.5 6.3 41 6.8 WNW 24 32 13 17 1014.2 1014.1 0.0
25/08:00am 18.4 13.8 6.6 46 5.9 WNW 20 30 11 16 1013.9 1013.8 0.0
25/07:30am 16.5 13.4 7.2 54 4.6 WNW 13 19 7 10 1013.8 1013.7 0.0
25/07:00am 14.1 12.4 8.5 69 2.8 NNW 7 9 4 5 1013.4 1013.3 0.0
25/06:30am 12.0 11.7 8.8 81 1.6 CALM 0 0 0 0 1012.9 1012.8 0.0
25/06:00am 9.0 6.7 7.5 90 0.7 SSW 9 13 5 7 1012.6 1012.5 0.0
25/05:30am 11.5 8.6 8.2 80 1.6 N 13 17 7 9 1011.7 1011.6 0.0
25/05:00am 11.6 9.5 8.3 80 1.6 N 9 11 5 6 1011.7 1011.6 0.0
25/04:30am 9.3 5.7 8.4 94 0.4 SW 17 33 9 18 1011.8 1011.7 0.0
25/04:00am 8.6 7.9 7.1 90 0.7 CALM 0 0 0 0 1011.0 1010.9 0.0
25/03:30am 9.9 9.5 8.3 90 0.8 CALM 0 0 0 0 1010.7 1010.6 0.0
25/03:00am 9.9 9.4 7.8 87 1.0 CALM 0 4 0 2 1010.7 1010.6 0.0
25/02:30am 10.0 8.2 7.9 87 1.0 S 7 9 4 5 1010.7 1010.6 0.0
25/02:00am 11.7 9.7 8.6 81 1.5 N 9 11 5 6 1010.7 1010.6 0.0
25/01:30am 10.2 8.4 8.1 87 1.0 WNW 7 7 4 4 1011.1 1011.0 0.0
25/01:00am 11.2 9.5 8.4 83 1.4 NNE 7 7 4 4 1011.3 1011.2 0.0
25/12:30am 11.0 9.2 8.1 82 1.4 SSE 7 7 4 4 1011.6 1011.5 0.0
25/12:00am 12.4 10.6 8.1 75 2.1 NW 7 9 4 5 1011.9 1011.8 0.0
 
Date/Time
EST
Temp
°C
App
Temp
°C
Dew
Point
°C
Rel
Hum
%
Delta-T
°C
Wind Press
QNH
hPa
Press
MSL
hPa
Rain since
9am
mm
Dir  Spd
km/h
Gust
km/h
Spd
kts
Gust
kts
24/11:30pm 12.5 10.5 8.8 78 1.8 N 9 11 5 6 1012.0 1011.9 0.0
24/11:00pm 12.7 11.1 8.8 77 2.0 N 7 9 4 5 1012.1 1012.0 0.0
24/10:30pm 13.7 12.5 9.4 75 2.2 NNE 6 9 3 5 1012.3 1012.2 0.0
24/10:00pm 14.5 14.2 8.7 68 2.9 CALM 0 0 0 0 1012.4 1012.3 0.0
24/09:30pm 15.2 14.5 7.0 58 4.0 CALM 0 0 0 0 1012.6 1012.5 0.0
24/09:00pm 16.8 16.0 6.6 51 5.0 CALM 0 6 0 3 1012.6 1012.5 0.0
24/08:30pm 18.5 15.6 6.4 45 6.0 WNW 11 13 6 7 1012.4 1012.3 0.0
24/08:00pm 18.5 15.3 7.0 47 5.8 WNW 13 15 7 8 1012.1 1012.0 0.0
24/07:30pm 19.0 15.8 6.8 45 6.1 WNW 13 15 7 8 1011.8 1011.7 0.0
24/07:00pm 19.7 16.3 6.1 41 6.8 WNW 13 15 7 8 1011.5 1011.4 0.0
24/06:30pm 21.6 17.3 5.1 34 8.2 WNW 17 24 9 13 1011.3 1011.2 0.0
24/06:00pm 22.6 18.3 5.1 32 8.7 WNW 17 22 9 12 1010.9 1010.8 0.0
24/05:30pm 24.4 18.8 5.2 29 9.7 NW 24 32 13 17 1010.5 1010.4 0.0
24/05:00pm 25.7 18.7 4.2 25 10.8 WNW 30 39 16 21 1010.3 1010.2 0.0
24/04:30pm 26.4 19.5 4.8 25 11.0 WNW 30 37 16 20 1010.1 1010.0 0.0
24/04:00pm 25.9 17.6 4.4 25 10.8 WNW 37 52 20 28 1009.8 1009.7 0.0
24/03:30pm 26.8 18.7 3.3 22 11.6 WNW 35 48 19 26 1009.5 1009.4 0.0
24/03:08pm 26.8 19.0 5.1 25 11.1 NW 35 54 19 29 1009.5 1009.4 0.0
24/03:00pm 27.3 19.3 5.6 25 11.2 WNW 37 52 20 28 1009.8 1009.7 0.0
24/02:47pm 27.0 19.7 5.3 25 11.1 NW 33 56 18 30 1009.8 1009.7 0.0
24/02:30pm 26.5 20.0 6.5 28 10.5 NW 30 39 16 21 1010.0 1009.9 0.0
24/02:00pm 27.0 20.5 8.0 30 10.2 NW 32 43 17 23 1010.5 1010.4 0.0
24/01:30pm 26.7 20.8 7.7 30 10.2 NW 28 48 15 26 1011.0 1010.9 0.0
24/01:28pm 26.4 20.2 7.9 31 9.9 NW 30 48 16 26 1011.0 1010.9 0.0
24/01:00pm 25.8 19.0 7.9 32 9.6 NW 33 46 18 25 1011.6 1011.5 0.0
24/12:30pm 25.5 18.1 6.7 30 9.8 WNW 35 50 19 27 1012.3 1012.2 0.0
24/12:13pm 25.5 16.9 6.7 30 9.8 WNW 41 61 22 33 1012.4 1012.3 0.0
24/12:00pm 25.4 16.8 6.6 30 9.8 WNW 41 52 22 28 1012.8 1012.7 0.0
24/11:30am 24.9 18.2 7.5 33 9.2 NW 32 46 17 25 1013.3 1013.2 0.0
24/11:00am 24.1 17.7 8.5 37 8.3 NW 32 43 17 23 1014.0 1013.9 0.0
24/10:30am 23.3 16.7 8.6 39 7.8 WNW 33 41 18 22 1014.7 1014.6 0.0
24/10:14am 23.4 18.3 10.5 44 7.1 WNW 28 46 15 25 1015.1 1015.0 0.0
24/10:00am 23.0 16.9 9.8 43 7.2 WNW 32 41 17 22 1015.3 1015.2 0.0
24/09:30am 21.7 15.6 9.9 47 6.4 WNW 32 48 17 26 1015.6 1015.5 0.0
24/09:00am 21.1 15.8 11.2 53 5.5 NW 30 39 16 21 1016.0 1015.9 0.0
24/08:30am 19.7 15.4 10.7 56 4.9 WNW 24 32 13 17 1016.2 1016.1 0.0
24/08:00am 17.9 15.1 11.2 65 3.6 WNW 17 22 9 12 1016.2 1016.1 0.0
24/07:30am 16.6 13.8 11.3 71 2.9 WNW 17 19 9 10 1016.1 1016.0 0.0
24/07:00am 15.2 12.8 11.4 78 2.0 WNW 15 17 8 9 1016.0 1015.9 0.0
24/06:30am 13.4 10.6 10.0 80 1.8 NW 15 17 8 9 1015.8 1015.7 0.0
24/06:00am 10.3 8.2 8.1 86 1.1 NW 9 11 5 6 1015.7 1015.6 0.0

Other formats

Comma delimited format used in spreadsheet applications
http://www.bom.gov.au/fwo/IDN60801/IDN60801.94776.axf

JavaScript Object Notation format (JSON) in row-major order
http://www.bom.gov.au/fwo/IDN60801/IDN60801.94776.json

Data quality

Most of these data are generated automatically and are frequently updated. Quality checks on data are not normally performed. It is possible for incorrect values to appear. Refer to information at About Latest Weather Observations and please check the disclaimer before using these data.